sensor_id;sensor_type;location;lat;lon;timestamp;P1;durP1;ratioP1;P2;durP2;ratioP2
70010;SDS011;59543;37.950;-122.338;2023-07-31T00:00:48;31.73;;;7.72;;
70010;SDS011;59543;37.950;-122.338;2023-07-31T00:03:15;29.30;;;7.97;;
70010;SDS011;59543;37.950;-122.338;2023-07-31T00:05:41;28.92;;;8.20;;
70010;SDS011;59543;37.950;-122.338;2023-07-31T00:08:07;34.10;;;8.23;;
70010;SDS011;59543;37.950;-122.338;2023-07-31T00:10:34;28.75;;;8.38;;
70010;SDS011;59543;37.950;-122.338;2023-07-31T00:13:00;27.13;;;7.45;;
70010;SDS011;59543;37.950;-122.338;2023-07-31T00:15:26;29.95;;;8.20;;
70010;SDS011;59543;37.950;-122.338;2023-07-31T00:17:53;27.95;;;8.05;;
70010;SDS011;59543;37.950;-122.338;2023-07-31T00:20:19;31.90;;;9.65;;
70010;SDS011;59543;37.950;-122.338;2023-07-31T00:22:46;27.88;;;7.85;;
70010;SDS011;59543;37.950;-122.338;2023-07-31T00:25:13;33.60;;;9.13;;
70010;SDS011;59543;37.950;-122.338;2023-07-31T00:27:39;31.63;;;8.88;;
70010;SDS011;59543;37.950;-122.338;2023-07-31T00:30:09;34.33;;;9.02;;
70010;SDS011;59543;37.950;-122.338;2023-07-31T00:32:36;36.17;;;8.95;;
70010;SDS011;59543;37.950;-122.338;2023-07-31T00:35:02;29.70;;;8.90;;
70010;SDS011;59543;37.950;-122.338;2023-07-31T00:37:29;35.92;;;9.23;;
70010;SDS011;59543;37.950;-122.338;2023-07-31T00:39:55;36.53;;;9.68;;
70010;SDS011;59543;37.950;-122.338;2023-07-31T00:42:21;36.78;;;9.52;;
70010;SDS011;59543;37.950;-122.338;2023-07-31T00:44:48;30.35;;;9.38;;
70010;SDS011;59543;37.950;-122.338;2023-07-31T00:47:14;35.80;;;9.30;;
70010;SDS011;59543;37.950;-122.338;2023-07-31T00:49:41;37.53;;;10.00;;
70010;SDS011;59543;37.950;-122.338;2023-07-31T00:52:08;34.28;;;10.55;;
70010;SDS011;59543;37.950;-122.338;2023-07-31T00:54:35;57.75;;;10.95;;
70010;SDS011;59543;37.950;-122.338;2023-07-31T00:57:02;35.03;;;9.52;;
70010;SDS011;59543;37.950;-122.338;2023-07-31T00:59:29;31.33;;;9.05;;
70010;SDS011;59543;37.950;-122.338;2023-07-31T01:01:55;35.78;;;9.85;;
70010;SDS011;59543;37.950;-122.338;2023-07-31T01:04:21;49.88;;;10.27;;
70010;SDS011;59543;37.950;-122.338;2023-07-31T01:12:30;37.10;;;9.68;;
70010;SDS011;59543;37.950;-122.338;2023-07-31T01:15:07;36.05;;;9.45;;
70010;SDS011;59543;37.950;-122.338;2023-07-31T01:17:36;36.88;;;8.93;;
70010;SDS011;59543;37.950;-122.338;2023-07-31T01:20:05;44.42;;;11.27;;
70010;SDS011;59543;37.950;-122.338;2023-07-31T01:28:35;40.08;;;10.27;;
70010;SDS011;59543;37.950;-122.338;2023-07-31T01:31:22;46.50;;;10.35;;
70010;SDS011;59543;37.950;-122.338;2023-07-31T01:33:50;36.28;;;10.10;;
70010;SDS011;59543;37.950;-122.338;2023-07-31T01:36:19;39.47;;;9.93;;
70010;SDS011;59543;37.950;-122.338;2023-07-31T01:38:46;36.13;;;10.00;;
70010;SDS011;59543;37.950;-122.338;2023-07-31T01:41:12;46.03;;;9.88;;
70010;SDS011;59543;37.950;-122.338;2023-07-31T01:43:39;32.63;;;9.18;;
70010;SDS011;59543;37.950;-122.338;2023-07-31T01:46:05;30.98;;;8.63;;
70010;SDS011;59543;37.950;-122.338;2023-07-31T01:48:31;38.22;;;9.68;;
70010;SDS011;59543;37.950;-122.338;2023-07-31T01:51:01;50.75;;;10.85;;
70010;SDS011;59543;37.950;-122.338;2023-07-31T01:53:28;30.98;;;9.98;;
70010;SDS011;59543;37.950;-122.338;2023-07-31T01:55:56;47.40;;;10.25;;
70010;SDS011;59543;37.950;-122.338;2023-07-31T01:58:22;41.28;;;9.93;;
70010;SDS011;59543;37.950;-122.338;2023-07-31T02:00:48;36.70;;;10.05;;
70010;SDS011;59543;37.950;-122.338;2023-07-31T02:03:15;36.78;;;10.55;;
70010;SDS011;59543;37.950;-122.338;2023-07-31T02:05:47;39.70;;;10.50;;
70010;SDS011;59543;37.950;-122.338;2023-07-31T02:08:14;41.72;;;11.35;;
70010;SDS011;59543;37.950;-122.338;2023-07-31T02:10:41;37.20;;;10.23;;
70010;SDS011;59543;37.950;-122.338;2023-07-31T02:13:07;40.70;;;10.55;;
70010;SDS011;59543;37.950;-122.338;2023-07-31T02:15:34;39.03;;;10.23;;
70010;SDS011;59543;37.950;-122.338;2023-07-31T02:18:00;38.35;;;11.05;;
70010;SDS011;59543;37.950;-122.338;2023-07-31T02:20:27;40.13;;;10.20;;
70010;SDS011;59543;37.950;-122.338;2023-07-31T02:22:53;42.50;;;10.45;;
70010;SDS011;59543;37.950;-122.338;2023-07-31T02:25:19;35.60;;;10.27;;
70010;SDS011;59543;37.950;-122.338;2023-07-31T02:27:46;34.90;;;9.80;;
70010;SDS011;59543;37.950;-122.338;2023-07-31T02:30:12;41.53;;;10.27;;
70010;SDS011;59543;37.950;-122.338;2023-07-31T02:32:38;34.85;;;10.55;;
70010;SDS011;59543;37.950;-122.338;2023-07-31T02:35:05;42.20;;;10.95;;
70010;SDS011;59543;37.950;-122.338;2023-07-31T02:37:31;35.38;;;9.98;;
70010;SDS011;59543;37.950;-122.338;2023-07-31T02:39:57;40.63;;;11.05;;
70010;SDS011;59543;37.950;-122.338;2023-07-31T02:42:24;50.33;;;10.05;;
70010;SDS011;59543;37.950;-122.338;2023-07-31T02:44:50;42.85;;;11.18;;
70010;SDS011;59543;37.950;-122.338;2023-07-31T02:47:21;38.25;;;10.93;;
70010;SDS011;59543;37.950;-122.338;2023-07-31T02:49:48;45.10;;;10.98;;
70010;SDS011;59543;37.950;-122.338;2023-07-31T02:52:14;44.03;;;10.60;;
70010;SDS011;59543;37.950;-122.338;2023-07-31T02:54:40;47.97;;;11.00;;
70010;SDS011;59543;37.950;-122.338;2023-07-31T02:57:07;40.95;;;10.30;;
70010;SDS011;59543;37.950;-122.338;2023-07-31T02:59:33;42.22;;;10.75;;
70010;SDS011;59543;37.950;-122.338;2023-07-31T03:02:00;41.13;;;11.30;;
70010;SDS011;59543;37.950;-122.338;2023-07-31T03:04:26;42.38;;;11.27;;
70010;SDS011;59543;37.950;-122.338;2023-07-31T03:06:52;37.67;;;10.55;;
70010;SDS011;59543;37.950;-122.338;2023-07-31T03:09:18;61.67;;;13.13;;
70010;SDS011;59543;37.950;-122.338;2023-07-31T03:11:45;47.58;;;11.23;;
70010;SDS011;59543;37.950;-122.338;2023-07-31T03:14:11;53.00;;;12.40;;
70010;SDS011;59543;37.950;-122.338;2023-07-31T03:16:37;46.65;;;11.60;;
70010;SDS011;59543;37.950;-122.338;2023-07-31T03:19:04;49.50;;;12.55;;
70010;SDS011;59543;37.950;-122.338;2023-07-31T03:21:30;51.95;;;11.98;;
70010;SDS011;59543;37.950;-122.338;2023-07-31T03:23:56;60.25;;;12.80;;
70010;SDS011;59543;37.950;-122.338;2023-07-31T03:26:23;59.95;;;13.43;;
70010;SDS011;59543;37.950;-122.338;2023-07-31T03:28:49;59.15;;;12.77;;
70010;SDS011;59543;37.950;-122.338;2023-07-31T03:31:15;46.25;;;11.70;;
70010;SDS011;59543;37.950;-122.338;2023-07-31T03:33:41;52.13;;;11.85;;
70010;SDS011;59543;37.950;-122.338;2023-07-31T03:36:07;55.72;;;12.52;;
70010;SDS011;59543;37.950;-122.338;2023-07-31T03:38:34;58.08;;;13.00;;
70010;SDS011;59543;37.950;-122.338;2023-07-31T03:41:00;53.30;;;12.82;;
70010;SDS011;59543;37.950;-122.338;2023-07-31T03:43:27;48.70;;;11.82;;
70010;SDS011;59543;37.950;-122.338;2023-07-31T03:45:54;57.85;;;13.35;;
70010;SDS011;59543;37.950;-122.338;2023-07-31T03:48:20;54.03;;;11.95;;
70010;SDS011;59543;37.950;-122.338;2023-07-31T03:50:46;56.58;;;13.15;;
70010;SDS011;59543;37.950;-122.338;2023-07-31T03:53:12;58.78;;;11.45;;
70010;SDS011;59543;37.950;-122.338;2023-07-31T03:55:39;50.70;;;12.55;;
70010;SDS011;59543;37.950;-122.338;2023-07-31T03:58:05;50.60;;;13.02;;
70010;SDS011;59543;37.950;-122.338;2023-07-31T04:00:31;56.75;;;12.00;;
70010;SDS011;59543;37.950;-122.338;2023-07-31T04:02:57;65.28;;;13.15;;
70010;SDS011;59543;37.950;-122.338;2023-07-31T04:05:24;55.72;;;13.27;;
70010;SDS011;59543;37.950;-122.338;2023-07-31T04:07:50;62.17;;;13.20;;
70010;SDS011;59543;37.950;-122.338;2023-07-31T04:10:16;61.65;;;12.88;;
70010;SDS011;59543;37.950;-122.338;2023-07-31T04:12:42;63.03;;;13.25;;
70010;SDS011;59543;37.950;-122.338;2023-07-31T04:15:09;60.10;;;12.23;;
70010;SDS011;59543;37.950;-122.338;2023-07-31T04:17:35;56.47;;;13.05;;
70010;SDS011;59543;37.950;-122.338;2023-07-31T04:20:01;56.95;;;12.48;;
70010;SDS011;59543;37.950;-122.338;2023-07-31T04:22:28;59.58;;;13.93;;
70010;SDS011;59543;37.950;-122.338;2023-07-31T04:24:54;61.10;;;13.88;;
70010;SDS011;59543;37.950;-122.338;2023-07-31T04:27:20;52.67;;;12.32;;
70010;SDS011;59543;37.950;-122.338;2023-07-31T04:29:47;52.97;;;13.40;;
70010;SDS011;59543;37.950;-122.338;2023-07-31T04:32:13;60.40;;;13.65;;
70010;SDS011;59543;37.950;-122.338;2023-07-31T04:34:42;62.97;;;13.05;;
70010;SDS011;59543;37.950;-122.338;2023-07-31T04:37:09;58.10;;;13.13;;
70010;SDS011;59543;37.950;-122.338;2023-07-31T04:39:35;58.75;;;13.52;;
70010;SDS011;59543;37.950;-122.338;2023-07-31T04:42:01;57.42;;;12.98;;
70010;SDS011;59543;37.950;-122.338;2023-07-31T04:44:27;54.30;;;12.50;;
70010;SDS011;59543;37.950;-122.338;2023-07-31T04:46:54;71.10;;;13.68;;
70010;SDS011;59543;37.950;-122.338;2023-07-31T04:49:20;54.40;;;13.13;;
70010;SDS011;59543;37.950;-122.338;2023-07-31T04:51:47;54.30;;;12.90;;
70010;SDS011;59543;37.950;-122.338;2023-07-31T04:54:13;51.55;;;12.35;;
70010;SDS011;59543;37.950;-122.338;2023-07-31T04:56:42;49.20;;;13.05;;
70010;SDS011;59543;37.950;-122.338;2023-07-31T04:59:08;51.58;;;13.18;;
70010;SDS011;59543;37.950;-122.338;2023-07-31T05:01:35;63.10;;;13.38;;
70010;SDS011;59543;37.950;-122.338;2023-07-31T05:04:01;55.63;;;12.70;;
70010;SDS011;59543;37.950;-122.338;2023-07-31T05:06:27;49.60;;;12.88;;
70010;SDS011;59543;37.950;-122.338;2023-07-31T05:08:53;56.08;;;13.18;;
70010;SDS011;59543;37.950;-122.338;2023-07-31T05:11:20;48.33;;;12.55;;
70010;SDS011;59543;37.950;-122.338;2023-07-31T05:13:46;50.17;;;12.88;;
70010;SDS011;59543;37.950;-122.338;2023-07-31T05:16:13;50.20;;;13.00;;
70010;SDS011;59543;37.950;-122.338;2023-07-31T05:18:39;58.00;;;11.80;;
70010;SDS011;59543;37.950;-122.338;2023-07-31T05:21:05;45.42;;;11.85;;
70010;SDS011;59543;37.950;-122.338;2023-07-31T05:23:32;56.28;;;13.80;;
70010;SDS011;59543;37.950;-122.338;2023-07-31T05:26:05;51.53;;;12.52;;
70010;SDS011;59543;37.950;-122.338;2023-07-31T05:28:34;50.08;;;12.63;;
70010;SDS011;59543;37.950;-122.338;2023-07-31T05:31:01;54.65;;;12.32;;
70010;SDS011;59543;37.950;-122.338;2023-07-31T05:33:30;61.20;;;12.88;;
70010;SDS011;59543;37.950;-122.338;2023-07-31T05:35:57;47.42;;;11.98;;
70010;SDS011;59543;37.950;-122.338;2023-07-31T05:38:23;56.00;;;13.50;;
70010;SDS011;59543;37.950;-122.338;2023-07-31T05:40:49;55.10;;;13.27;;
70010;SDS011;59543;37.950;-122.338;2023-07-31T05:43:16;53.85;;;12.80;;
70010;SDS011;59543;37.950;-122.338;2023-07-31T05:45:42;55.08;;;12.40;;
70010;SDS011;59543;37.950;-122.338;2023-07-31T05:48:08;61.63;;;14.25;;
70010;SDS011;59543;37.950;-122.338;2023-07-31T05:50:35;60.55;;;13.15;;
70010;SDS011;59543;37.950;-122.338;2023-07-31T05:53:02;56.05;;;13.40;;
70010;SDS011;59543;37.950;-122.338;2023-07-31T05:55:28;59.30;;;13.88;;
70010;SDS011;59543;37.950;-122.338;2023-07-31T05:57:54;61.50;;;13.57;;
70010;SDS011;59543;37.950;-122.338;2023-07-31T06:00:21;74.05;;;14.23;;
70010;SDS011;59543;37.950;-122.338;2023-07-31T06:02:48;57.70;;;13.43;;
70010;SDS011;59543;37.950;-122.338;2023-07-31T06:05:14;67.85;;;13.77;;
70010;SDS011;59543;37.950;-122.338;2023-07-31T06:07:40;67.75;;;14.77;;
70010;SDS011;59543;37.950;-122.338;2023-07-31T06:10:07;56.83;;;12.57;;
70010;SDS011;59543;37.950;-122.338;2023-07-31T06:12:33;62.50;;;13.15;;
70010;SDS011;59543;37.950;-122.338;2023-07-31T06:15:00;56.88;;;12.63;;
70010;SDS011;59543;37.950;-122.338;2023-07-31T06:17:28;54.15;;;12.57;;
70010;SDS011;59543;37.950;-122.338;2023-07-31T06:19:55;54.50;;;13.00;;
70010;SDS011;59543;37.950;-122.338;2023-07-31T06:22:22;57.80;;;12.93;;
70010;SDS011;59543;37.950;-122.338;2023-07-31T06:24:49;50.60;;;12.90;;
70010;SDS011;59543;37.950;-122.338;2023-07-31T06:27:15;58.90;;;13.98;;
70010;SDS011;59543;37.950;-122.338;2023-07-31T06:29:42;59.08;;;13.20;;
70010;SDS011;59543;37.950;-122.338;2023-07-31T06:32:08;66.95;;;13.60;;
70010;SDS011;59543;37.950;-122.338;2023-07-31T06:34:34;63.03;;;12.95;;
70010;SDS011;59543;37.950;-122.338;2023-07-31T06:37:00;60.90;;;12.57;;
70010;SDS011;59543;37.950;-122.338;2023-07-31T06:39:27;52.17;;;12.13;;
70010;SDS011;59543;37.950;-122.338;2023-07-31T06:41:53;53.05;;;12.88;;
70010;SDS011;59543;37.950;-122.338;2023-07-31T06:44:19;55.90;;;13.27;;
70010;SDS011;59543;37.950;-122.338;2023-07-31T06:46:45;62.83;;;13.27;;
70010;SDS011;59543;37.950;-122.338;2023-07-31T06:49:11;54.00;;;12.82;;
70010;SDS011;59543;37.950;-122.338;2023-07-31T06:51:40;50.28;;;12.20;;
70010;SDS011;59543;37.950;-122.338;2023-07-31T06:54:07;53.97;;;12.18;;
70010;SDS011;59543;37.950;-122.338;2023-07-31T06:56:34;57.38;;;13.90;;
70010;SDS011;59543;37.950;-122.338;2023-07-31T06:59:00;60.53;;;12.60;;
70010;SDS011;59543;37.950;-122.338;2023-07-31T07:01:26;56.97;;;12.70;;
70010;SDS011;59543;37.950;-122.338;2023-07-31T07:03:54;49.72;;;12.32;;
70010;SDS011;59543;37.950;-122.338;2023-07-31T07:06:21;52.70;;;12.57;;
70010;SDS011;59543;37.950;-122.338;2023-07-31T07:08:48;50.67;;;12.20;;
70010;SDS011;59543;37.950;-122.338;2023-07-31T07:11:14;53.42;;;12.88;;
70010;SDS011;59543;37.950;-122.338;2023-07-31T07:13:40;56.13;;;12.73;;
70010;SDS011;59543;37.950;-122.338;2023-07-31T07:16:07;59.53;;;12.98;;
70010;SDS011;59543;37.950;-122.338;2023-07-31T07:18:33;59.10;;;13.75;;
70010;SDS011;59543;37.950;-122.338;2023-07-31T07:20:59;62.50;;;13.73;;
70010;SDS011;59543;37.950;-122.338;2023-07-31T07:23:27;65.85;;;12.95;;
70010;SDS011;59543;37.950;-122.338;2023-07-31T07:25:53;68.82;;;13.35;;
70010;SDS011;59543;37.950;-122.338;2023-07-31T07:28:20;61.70;;;14.82;;
70010;SDS011;59543;37.950;-122.338;2023-07-31T07:30:50;64.95;;;14.25;;
70010;SDS011;59543;37.950;-122.338;2023-07-31T07:33:19;64.15;;;15.45;;
70010;SDS011;59543;37.950;-122.338;2023-07-31T07:35:45;54.28;;;13.15;;
70010;SDS011;59543;37.950;-122.338;2023-07-31T07:38:13;59.33;;;12.90;;
70010;SDS011;59543;37.950;-122.338;2023-07-31T07:40:40;53.85;;;13.70;;
70010;SDS011;59543;37.950;-122.338;2023-07-31T07:43:07;61.25;;;14.32;;
70010;SDS011;59543;37.950;-122.338;2023-07-31T07:45:33;62.28;;;13.45;;
70010;SDS011;59543;37.950;-122.338;2023-07-31T07:48:00;58.05;;;13.07;;
70010;SDS011;59543;37.950;-122.338;2023-07-31T07:50:26;58.58;;;12.93;;
70010;SDS011;59543;37.950;-122.338;2023-07-31T07:52:52;50.78;;;12.68;;
70010;SDS011;59543;37.950;-122.338;2023-07-31T07:55:18;48.72;;;11.68;;
70010;SDS011;59543;37.950;-122.338;2023-07-31T07:57:44;53.55;;;12.23;;
70010;SDS011;59543;37.950;-122.338;2023-07-31T08:00:12;54.13;;;13.35;;
70010;SDS011;59543;37.950;-122.338;2023-07-31T08:02:39;55.28;;;13.10;;
70010;SDS011;59543;37.950;-122.338;2023-07-31T08:05:05;52.33;;;13.45;;
70010;SDS011;59543;37.950;-122.338;2023-07-31T08:07:31;57.38;;;13.00;;
70010;SDS011;59543;37.950;-122.338;2023-07-31T08:09:57;57.15;;;12.93;;
70010;SDS011;59543;37.950;-122.338;2023-07-31T08:12:24;60.50;;;13.57;;
70010;SDS011;59543;37.950;-122.338;2023-07-31T08:14:50;55.40;;;12.95;;
70010;SDS011;59543;37.950;-122.338;2023-07-31T08:17:17;62.00;;;12.48;;
70010;SDS011;59543;37.950;-122.338;2023-07-31T08:19:43;53.63;;;12.65;;
70010;SDS011;59543;37.950;-122.338;2023-07-31T08:22:10;50.05;;;12.02;;
70010;SDS011;59543;37.950;-122.338;2023-07-31T08:24:36;51.42;;;13.05;;
70010;SDS011;59543;37.950;-122.338;2023-07-31T08:27:02;65.28;;;13.68;;
70010;SDS011;59543;37.950;-122.338;2023-07-31T08:29:29;59.88;;;12.30;;
70010;SDS011;59543;37.950;-122.338;2023-07-31T08:31:55;56.88;;;13.07;;
70010;SDS011;59543;37.950;-122.338;2023-07-31T08:34:21;49.00;;;11.90;;
70010;SDS011;59543;37.950;-122.338;2023-07-31T08:36:47;61.50;;;12.98;;
70010;SDS011;59543;37.950;-122.338;2023-07-31T08:39:14;55.42;;;13.00;;
70010;SDS011;59543;37.950;-122.338;2023-07-31T08:41:40;55.17;;;12.50;;
70010;SDS011;59543;37.950;-122.338;2023-07-31T08:44:06;57.22;;;12.85;;
70010;SDS011;59543;37.950;-122.338;2023-07-31T08:46:33;51.40;;;12.32;;
70010;SDS011;59543;37.950;-122.338;2023-07-31T08:49:00;53.40;;;13.10;;
70010;SDS011;59543;37.950;-122.338;2023-07-31T08:51:33;63.72;;;12.65;;
70010;SDS011;59543;37.950;-122.338;2023-07-31T08:54:01;64.18;;;13.20;;
70010;SDS011;59543;37.950;-122.338;2023-07-31T08:56:29;56.05;;;12.57;;
70010;SDS011;59543;37.950;-122.338;2023-07-31T08:58:57;52.00;;;12.93;;
70010;SDS011;59543;37.950;-122.338;2023-07-31T09:01:28;48.45;;;12.25;;
70010;SDS011;59543;37.950;-122.338;2023-07-31T09:03:57;50.50;;;11.70;;
70010;SDS011;59543;37.950;-122.338;2023-07-31T09:06:26;56.30;;;13.23;;
70010;SDS011;59543;37.950;-122.338;2023-07-31T09:08:55;37.13;;;11.15;;
70010;SDS011;59543;37.950;-122.338;2023-07-31T09:11:22;45.90;;;12.73;;
70010;SDS011;59543;37.950;-122.338;2023-07-31T09:13:50;61.80;;;12.63;;
70010;SDS011;59543;37.950;-122.338;2023-07-31T09:16:18;62.97;;;12.15;;
70010;SDS011;59543;37.950;-122.338;2023-07-31T09:18:53;52.45;;;12.80;;
70010;SDS011;59543;37.950;-122.338;2023-07-31T09:21:22;52.80;;;12.43;;
70010;SDS011;59543;37.950;-122.338;2023-07-31T09:23:49;52.22;;;11.68;;
70010;SDS011;59543;37.950;-122.338;2023-07-31T09:26:37;51.40;;;12.40;;
70010;SDS011;59543;37.950;-122.338;2023-07-31T09:29:04;58.13;;;13.57;;
70010;SDS011;59543;37.950;-122.338;2023-07-31T09:31:42;59.67;;;13.60;;
70010;SDS011;59543;37.950;-122.338;2023-07-31T09:34:10;49.20;;;12.45;;
70010;SDS011;59543;37.950;-122.338;2023-07-31T09:36:41;52.95;;;12.52;;
70010;SDS011;59543;37.950;-122.338;2023-07-31T09:39:11;55.80;;;13.35;;
70010;SDS011;59543;37.950;-122.338;2023-07-31T09:41:39;53.92;;;11.95;;
70010;SDS011;59543;37.950;-122.338;2023-07-31T09:44:07;53.78;;;12.73;;
70010;SDS011;59543;37.950;-122.338;2023-07-31T09:46:37;49.72;;;12.45;;
70010;SDS011;59543;37.950;-122.338;2023-07-31T09:49:10;54.15;;;12.38;;
70010;SDS011;59543;37.950;-122.338;2023-07-31T09:51:38;54.55;;;12.65;;
70010;SDS011;59543;37.950;-122.338;2023-07-31T09:54:09;45.28;;;12.23;;
70010;SDS011;59543;37.950;-122.338;2023-07-31T09:56:46;59.70;;;13.65;;
70010;SDS011;59543;37.950;-122.338;2023-07-31T09:59:17;62.97;;;14.13;;
70010;SDS011;59543;37.950;-122.338;2023-07-31T10:01:45;59.50;;;14.07;;
70010;SDS011;59543;37.950;-122.338;2023-07-31T10:04:12;46.83;;;12.60;;
70010;SDS011;59543;37.950;-122.338;2023-07-31T10:06:40;46.67;;;12.30;;
70010;SDS011;59543;37.950;-122.338;2023-07-31T10:09:09;54.70;;;14.00;;
70010;SDS011;59543;37.950;-122.338;2023-07-31T10:11:38;58.63;;;14.27;;
70010;SDS011;59543;37.950;-122.338;2023-07-31T10:14:09;49.15;;;12.77;;
70010;SDS011;59543;37.950;-122.338;2023-07-31T10:16:37;57.10;;;12.32;;
70010;SDS011;59543;37.950;-122.338;2023-07-31T10:19:05;56.53;;;13.35;;
70010;SDS011;59543;37.950;-122.338;2023-07-31T10:21:33;63.63;;;13.68;;
70010;SDS011;59543;37.950;-122.338;2023-07-31T10:24:04;60.35;;;13.70;;
70010;SDS011;59543;37.950;-122.338;2023-07-31T10:26:31;50.83;;;13.95;;
70010;SDS011;59543;37.950;-122.338;2023-07-31T10:29:00;49.90;;;12.27;;
70010;SDS011;59543;37.950;-122.338;2023-07-31T10:31:30;59.10;;;13.27;;
70010;SDS011;59543;37.950;-122.338;2023-07-31T10:33:57;52.15;;;12.57;;
70010;SDS011;59543;37.950;-122.338;2023-07-31T10:36:28;59.38;;;14.15;;
70010;SDS011;59543;37.950;-122.338;2023-07-31T10:38:55;62.97;;;13.57;;
70010;SDS011;59543;37.950;-122.338;2023-07-31T10:41:31;63.95;;;14.15;;
70010;SDS011;59543;37.950;-122.338;2023-07-31T10:43:58;58.33;;;13.98;;
70010;SDS011;59543;37.950;-122.338;2023-07-31T10:46:27;61.30;;;13.48;;
70010;SDS011;59543;37.950;-122.338;2023-07-31T10:48:58;64.47;;;14.32;;
70010;SDS011;59543;37.950;-122.338;2023-07-31T10:51:35;56.75;;;13.40;;
70010;SDS011;59543;37.950;-122.338;2023-07-31T10:54:11;56.97;;;14.15;;
70010;SDS011;59543;37.950;-122.338;2023-07-31T10:56:39;62.10;;;14.82;;
70010;SDS011;59543;37.950;-122.338;2023-07-31T10:59:05;62.80;;;13.35;;
70010;SDS011;59543;37.950;-122.338;2023-07-31T11:01:51;56.65;;;13.65;;
70010;SDS011;59543;37.950;-122.338;2023-07-31T11:04:24;62.67;;;14.13;;
70010;SDS011;59543;37.950;-122.338;2023-07-31T11:07:01;64.82;;;14.13;;
70010;SDS011;59543;37.950;-122.338;2023-07-31T11:09:30;68.22;;;14.38;;
70010;SDS011;59543;37.950;-122.338;2023-07-31T11:11:59;62.95;;;14.82;;
70010;SDS011;59543;37.950;-122.338;2023-07-31T11:14:25;58.92;;;12.98;;
70010;SDS011;59543;37.950;-122.338;2023-07-31T11:16:52;67.57;;;15.00;;
70010;SDS011;59543;37.950;-122.338;2023-07-31T11:19:21;62.13;;;14.25;;
70010;SDS011;59543;37.950;-122.338;2023-07-31T11:21:49;64.35;;;14.75;;
70010;SDS011;59543;37.950;-122.338;2023-07-31T11:24:16;60.15;;;13.70;;
70010;SDS011;59543;37.950;-122.338;2023-07-31T11:26:52;67.00;;;13.18;;
70010;SDS011;59543;37.950;-122.338;2023-07-31T11:29:18;52.78;;;13.40;;
70010;SDS011;59543;37.950;-122.338;2023-07-31T11:31:46;66.85;;;15.05;;
70010;SDS011;59543;37.950;-122.338;2023-07-31T11:34:14;61.30;;;13.15;;
70010;SDS011;59543;37.950;-122.338;2023-07-31T11:36:52;57.95;;;13.60;;
70010;SDS011;59543;37.950;-122.338;2023-07-31T11:39:20;61.25;;;14.38;;
70010;SDS011;59543;37.950;-122.338;2023-07-31T11:41:46;59.38;;;13.73;;
70010;SDS011;59543;37.950;-122.338;2023-07-31T11:44:12;71.82;;;14.55;;
70010;SDS011;59543;37.950;-122.338;2023-07-31T11:46:38;68.38;;;14.70;;
70010;SDS011;59543;37.950;-122.338;2023-07-31T11:49:05;77.05;;;15.55;;
70010;SDS011;59543;37.950;-122.338;2023-07-31T11:51:31;60.83;;;14.10;;
70010;SDS011;59543;37.950;-122.338;2023-07-31T11:53:58;58.63;;;13.32;;
70010;SDS011;59543;37.950;-122.338;2023-07-31T11:56:27;54.78;;;13.63;;
70010;SDS011;59543;37.950;-122.338;2023-07-31T11:58:55;68.32;;;14.20;;
70010;SDS011;59543;37.950;-122.338;2023-07-31T12:01:24;66.22;;;14.77;;
70010;SDS011;59543;37.950;-122.338;2023-07-31T12:03:53;65.10;;;13.40;;
70010;SDS011;59543;37.950;-122.338;2023-07-31T12:06:20;69.88;;;13.77;;
70010;SDS011;59543;37.950;-122.338;2023-07-31T12:08:47;49.53;;;13.00;;
70010;SDS011;59543;37.950;-122.338;2023-07-31T12:11:14;67.82;;;14.60;;
70010;SDS011;59543;37.950;-122.338;2023-07-31T12:13:43;66.50;;;13.43;;
70010;SDS011;59543;37.950;-122.338;2023-07-31T12:16:09;57.42;;;14.00;;
70010;SDS011;59543;37.950;-122.338;2023-07-31T12:18:36;62.70;;;14.10;;
70010;SDS011;59543;37.950;-122.338;2023-07-31T12:21:07;56.35;;;13.88;;
70010;SDS011;59543;37.950;-122.338;2023-07-31T12:23:36;48.45;;;12.25;;
70010;SDS011;59543;37.950;-122.338;2023-07-31T12:26:04;57.08;;;13.48;;
70010;SDS011;59543;37.950;-122.338;2023-07-31T12:28:41;63.40;;;13.82;;
70010;SDS011;59543;37.950;-122.338;2023-07-31T12:33:40;47.35;;;12.55;;
70010;SDS011;59543;37.950;-122.338;2023-07-31T12:36:16;56.63;;;14.02;;
70010;SDS011;59543;37.950;-122.338;2023-07-31T12:38:45;54.10;;;13.07;;
70010;SDS011;59543;37.950;-122.338;2023-07-31T12:41:12;55.00;;;13.15;;
70010;SDS011;59543;37.950;-122.338;2023-07-31T12:43:39;70.35;;;13.65;;
70010;SDS011;59543;37.950;-122.338;2023-07-31T12:46:07;58.28;;;13.60;;
70010;SDS011;59543;37.950;-122.338;2023-07-31T12:48:33;59.72;;;13.02;;
70010;SDS011;59543;37.950;-122.338;2023-07-31T12:51:00;53.28;;;13.43;;
70010;SDS011;59543;37.950;-122.338;2023-07-31T12:53:27;50.15;;;13.52;;
70010;SDS011;59543;37.950;-122.338;2023-07-31T12:55:54;56.53;;;13.55;;
70010;SDS011;59543;37.950;-122.338;2023-07-31T12:58:20;70.78;;;14.95;;
70010;SDS011;59543;37.950;-122.338;2023-07-31T13:00:47;54.08;;;13.18;;
70010;SDS011;59543;37.950;-122.338;2023-07-31T13:03:13;62.80;;;13.75;;
70010;SDS011;59543;37.950;-122.338;2023-07-31T13:05:39;59.28;;;13.52;;
70010;SDS011;59543;37.950;-122.338;2023-07-31T13:08:06;59.60;;;13.43;;
70010;SDS011;59543;37.950;-122.338;2023-07-31T13:10:32;55.13;;;12.77;;
70010;SDS011;59543;37.950;-122.338;2023-07-31T13:12:59;57.60;;;13.40;;
70010;SDS011;59543;37.950;-122.338;2023-07-31T13:15:25;65.65;;;14.55;;
70010;SDS011;59543;37.950;-122.338;2023-07-31T13:17:51;49.72;;;13.32;;
70010;SDS011;59543;37.950;-122.338;2023-07-31T13:20:17;52.45;;;13.73;;
70010;SDS011;59543;37.950;-122.338;2023-07-31T13:22:44;51.78;;;13.82;;
70010;SDS011;59543;37.950;-122.338;2023-07-31T13:25:10;59.28;;;13.30;;
70010;SDS011;59543;37.950;-122.338;2023-07-31T13:27:36;66.68;;;13.60;;
70010;SDS011;59543;37.950;-122.338;2023-07-31T13:30:02;53.85;;;13.70;;
70010;SDS011;59543;37.950;-122.338;2023-07-31T13:32:29;56.38;;;13.93;;
70010;SDS011;59543;37.950;-122.338;2023-07-31T13:34:55;46.70;;;12.75;;
70010;SDS011;59543;37.950;-122.338;2023-07-31T13:37:22;60.38;;;13.63;;
70010;SDS011;59543;37.950;-122.338;2023-07-31T13:39:48;72.28;;;13.70;;
70010;SDS011;59543;37.950;-122.338;2023-07-31T13:42:14;51.03;;;12.95;;
70010;SDS011;59543;37.950;-122.338;2023-07-31T13:44:43;60.83;;;13.27;;
70010;SDS011;59543;37.950;-122.338;2023-07-31T13:47:09;50.88;;;13.35;;
70010;SDS011;59543;37.950;-122.338;2023-07-31T13:49:36;53.10;;;12.73;;
70010;SDS011;59543;37.950;-122.338;2023-07-31T13:52:04;53.75;;;13.10;;
70010;SDS011;59543;37.950;-122.338;2023-07-31T13:54:30;55.65;;;12.90;;
70010;SDS011;59543;37.950;-122.338;2023-07-31T13:56:56;45.78;;;12.35;;
70010;SDS011;59543;37.950;-122.338;2023-07-31T13:59:23;49.28;;;11.55;;
70010;SDS011;59543;37.950;-122.338;2023-07-31T14:01:49;51.40;;;12.70;;